createdAt,value
2022-10-16T00:02:09.274Z,2.03
2022-10-16T00:04:35.311Z,2.40
2022-10-16T00:07:02.002Z,2.37
2022-10-16T00:09:28.049Z,2.50
2022-10-16T00:14:21.040Z,2.20
2022-10-16T00:16:47.148Z,1.97
2022-10-16T00:19:13.249Z,2.10
2022-10-16T00:21:39.353Z,2.33
2022-10-16T00:24:08.669Z,2.03
2022-10-16T00:26:36.750Z,2.70
2022-10-16T00:29:03.580Z,2.10
2022-10-16T00:31:29.934Z,2.20
2022-10-16T00:33:56.167Z,3.03
2022-10-16T00:36:24.364Z,2.47
2022-10-16T00:38:55.274Z,2.70
2022-10-16T00:41:23.013Z,3.10
2022-10-16T00:43:58.882Z,2.30
2022-10-16T00:46:41.946Z,3.47
2022-10-16T00:49:13.781Z,2.57
2022-10-16T00:51:42.068Z,3.20
2022-10-16T00:54:16.815Z,2.90
2022-10-16T00:56:44.029Z,2.70
2022-10-16T00:59:15.920Z,3.10
2022-10-16T01:01:42.070Z,3.00
2022-10-16T01:04:08.092Z,2.30
2022-10-16T01:06:43.137Z,2.80
2022-10-16T01:09:12.193Z,2.90
2022-10-16T01:12:05.510Z,2.53
2022-10-16T01:14:54.530Z,3.17
2022-10-16T01:17:31.914Z,3.27
2022-10-16T01:20:05.665Z,3.10
2022-10-16T01:22:49.006Z,2.93
2022-10-16T01:25:30.940Z,3.30
2022-10-16T01:27:57.665Z,3.30
2022-10-16T01:30:26.783Z,3.57
2022-10-16T01:33:01.059Z,3.40
2022-10-16T01:35:30.793Z,4.20
2022-10-16T01:38:01.616Z,3.30
2022-10-16T01:40:28.113Z,3.80
2022-10-16T01:42:59.900Z,3.40
2022-10-16T01:45:26.834Z,3.30
2022-10-16T01:47:53.519Z,3.60
2022-10-16T01:50:20.941Z,6.40
2022-10-16T01:52:48.862Z,4.10
2022-10-16T01:55:22.607Z,3.63
2022-10-16T01:57:50.211Z,3.00
2022-10-16T02:00:17.717Z,3.13
2022-10-16T02:02:47.798Z,2.70
2022-10-16T02:05:27.174Z,3.50
2022-10-16T02:07:53.220Z,3.37
2022-10-16T02:10:19.347Z,2.53
2022-10-16T02:12:50.521Z,2.80
2022-10-16T02:15:16.732Z,2.80
2022-10-16T02:17:42.760Z,2.70
2022-10-16T02:20:09.361Z,3.60
2022-10-16T02:22:41.155Z,3.00
2022-10-16T02:25:11.279Z,3.50
2022-10-16T02:27:42.331Z,3.40
2022-10-16T02:30:12.549Z,3.60
2022-10-16T02:32:41.232Z,3.60
2022-10-16T02:35:07.958Z,3.50
2022-10-16T02:37:34.267Z,3.87
2022-10-16T02:40:00.766Z,3.80
2022-10-16T02:42:35.098Z,3.93
2022-10-16T02:45:01.155Z,3.90
2022-10-16T02:47:27.174Z,3.80
2022-10-16T02:49:53.189Z,4.50
2022-10-16T02:52:19.193Z,3.73
2022-10-16T02:54:45.211Z,4.10
2022-10-16T02:57:12.039Z,4.40
2022-10-16T02:59:38.034Z,4.67
2022-10-16T03:02:04.246Z,4.20
2022-10-16T03:04:30.250Z,3.43
2022-10-16T03:06:56.310Z,3.93
2022-10-16T03:09:22.369Z,4.57
2022-10-16T03:11:48.372Z,4.50
2022-10-16T03:14:14.535Z,5.00
2022-10-16T03:16:40.563Z,5.50
2022-10-16T03:19:06.620Z,4.57
2022-10-16T03:21:32.642Z,5.53
2022-10-16T03:23:58.658Z,5.40
2022-10-16T03:26:24.659Z,4.97
2022-10-16T03:28:50.709Z,5.03
2022-10-16T03:31:16.803Z,4.43
2022-10-16T03:33:42.809Z,4.80
2022-10-16T03:36:08.876Z,5.07
2022-10-16T03:38:34.940Z,4.90
2022-10-16T03:41:00.962Z,5.23
2022-10-16T03:43:26.958Z,4.90
2022-10-16T03:45:53.110Z,5.57
2022-10-16T03:48:20.007Z,5.83
2022-10-16T03:50:48.263Z,5.70
2022-10-16T03:53:15.008Z,5.50
2022-10-16T03:55:44.106Z,5.65
2022-10-16T03:58:10.772Z,5.67
2022-10-16T04:00:41.800Z,5.80
2022-10-16T04:03:07.893Z,5.40
2022-10-16T04:05:34.006Z,5.90
2022-10-16T04:08:00.054Z,5.27
2022-10-16T04:10:26.093Z,4.57
2022-10-16T04:12:52.193Z,4.90
2022-10-16T04:15:18.204Z,4.37
2022-10-16T04:17:44.467Z,4.90
2022-10-16T04:20:10.495Z,4.93
2022-10-16T04:22:36.785Z,5.63
2022-10-16T04:25:02.979Z,5.60
2022-10-16T04:27:31.451Z,5.07
2022-10-16T04:29:58.462Z,5.37
2022-10-16T04:32:24.472Z,5.80
2022-10-16T04:34:50.516Z,5.47
2022-10-16T04:37:16.579Z,5.60
2022-10-16T04:39:42.696Z,5.53
2022-10-16T04:42:08.749Z,4.43
2022-10-16T04:44:34.812Z,5.03
2022-10-16T04:47:01.022Z,5.40
2022-10-16T04:49:27.042Z,5.43
2022-10-16T04:51:53.070Z,5.17
2022-10-16T04:54:19.239Z,4.57
2022-10-16T04:56:47.982Z,5.17
2022-10-16T04:59:15.076Z,5.80
2022-10-16T05:01:41.169Z,6.20
2022-10-16T05:04:07.257Z,5.37
2022-10-16T05:06:33.282Z,3.90
2022-10-16T05:08:59.325Z,5.40
2022-10-16T05:11:25.362Z,4.10
2022-10-16T05:13:55.080Z,3.50
2022-10-16T05:16:22.101Z,3.57
2022-10-16T05:18:52.944Z,5.03
2022-10-16T05:21:19.803Z,4.40
2022-10-16T05:23:45.825Z,4.50
2022-10-16T05:26:12.223Z,4.73
2022-10-16T05:28:38.261Z,4.03
2022-10-16T05:31:08.174Z,4.20
2022-10-16T05:33:34.364Z,3.17
2022-10-16T05:36:07.841Z,3.83
2022-10-16T05:38:34.799Z,3.43
2022-10-16T05:41:00.883Z,4.00
2022-10-16T05:43:30.575Z,4.33
2022-10-16T05:46:04.023Z,3.80
2022-10-16T05:48:30.359Z,4.37
2022-10-16T05:51:07.315Z,3.63
2022-10-16T05:53:35.017Z,3.83
2022-10-16T05:56:01.875Z,3.70
2022-10-16T05:58:35.955Z,3.90
2022-10-16T06:01:07.404Z,2.93
2022-10-16T06:03:34.644Z,2.73
2022-10-16T06:06:12.395Z,3.40
2022-10-16T06:08:39.259Z,3.30
2022-10-16T06:11:07.891Z,3.13
2022-10-16T06:13:33.998Z,3.03
2022-10-16T06:16:00.819Z,2.50
2022-10-16T06:18:27.866Z,2.10
2022-10-16T06:20:54.537Z,3.70
2022-10-16T06:23:20.701Z,3.00
2022-10-16T06:25:46.826Z,2.40
2022-10-16T06:28:33.644Z,2.23
2022-10-16T06:31:04.217Z,2.40
2022-10-16T06:33:33.750Z,2.67
2022-10-16T06:36:11.178Z,2.40
2022-10-16T06:38:38.079Z,2.00
2022-10-16T06:41:04.866Z,2.27
2022-10-16T06:43:37.465Z,1.90
2022-10-16T06:46:04.985Z,2.20
2022-10-16T06:48:31.339Z,2.50
2022-10-16T06:51:06.590Z,3.07
2022-10-16T06:53:39.638Z,1.57
2022-10-16T06:56:14.280Z,1.80
2022-10-16T06:58:41.165Z,1.70
2022-10-16T07:01:07.695Z,1.70
2022-10-16T07:03:35.987Z,1.30
2022-10-16T07:06:06.295Z,1.47
2022-10-16T07:08:33.450Z,1.17
2022-10-16T07:11:01.111Z,1.50
2022-10-16T07:13:27.211Z,0.80
2022-10-16T07:15:53.425Z,1.30
2022-10-16T07:18:19.684Z,1.73
2022-10-16T07:20:45.794Z,0.80
2022-10-16T07:23:11.802Z,0.97
2022-10-16T07:25:37.817Z,0.70
2022-10-16T07:28:04.462Z,0.90
2022-10-16T07:30:30.533Z,0.80
2022-10-16T07:32:56.577Z,0.70
2022-10-16T07:35:22.738Z,0.60
2022-10-16T07:37:48.734Z,0.60
2022-10-16T07:40:14.889Z,0.70
2022-10-16T07:42:41.005Z,0.70
2022-10-16T07:45:07.311Z,0.70
2022-10-16T07:47:33.374Z,0.87
2022-10-16T07:49:59.369Z,0.73
2022-10-16T07:52:25.475Z,0.90
2022-10-16T07:54:51.509Z,0.70
2022-10-16T07:57:19.680Z,1.07
2022-10-16T07:59:46.423Z,2.30
2022-10-16T08:02:12.779Z,0.87
2022-10-16T08:04:38.787Z,1.33
2022-10-16T08:07:04.804Z,1.03
2022-10-16T08:09:30.813Z,1.20
2022-10-16T08:12:01.992Z,1.20
2022-10-16T08:14:28.386Z,1.00
2022-10-16T08:16:54.404Z,1.43
2022-10-16T08:19:20.406Z,1.37
2022-10-16T08:21:49.273Z,1.23
2022-10-16T08:24:15.268Z,1.20
2022-10-16T08:26:41.481Z,0.97
2022-10-16T08:29:07.588Z,4.60
2022-10-16T08:31:33.635Z,1.90
2022-10-16T08:33:59.696Z,1.53
2022-10-16T08:36:25.707Z,1.20
2022-10-16T08:38:54.391Z,1.13
2022-10-16T08:41:28.375Z,0.80
2022-10-16T08:44:09.601Z,0.83
2022-10-16T08:46:50.442Z,1.27
2022-10-16T08:49:17.182Z,1.70
2022-10-16T08:51:44.292Z,2.50
2022-10-16T08:54:23.486Z,1.20
2022-10-16T08:56:49.534Z,1.30
2022-10-16T08:59:16.519Z,1.37
2022-10-16T09:01:46.100Z,1.03
2022-10-16T09:04:12.073Z,0.93
2022-10-16T09:06:48.078Z,1.17
2022-10-16T09:09:35.417Z,1.10
2022-10-16T09:12:32.566Z,1.13
2022-10-16T09:15:22.461Z,1.00
2022-10-16T09:18:05.522Z,0.80
2022-10-16T09:20:50.680Z,0.80
2022-10-16T09:23:26.930Z,0.60
2022-10-16T09:25:54.067Z,0.80
2022-10-16T09:28:20.629Z,0.60
2022-10-16T09:30:48.867Z,0.50
2022-10-16T09:33:15.678Z,0.60
2022-10-16T09:35:49.497Z,0.60
2022-10-16T09:38:36.374Z,0.60
2022-10-16T09:41:17.741Z,0.70
2022-10-16T09:43:48.403Z,0.70
2022-10-16T09:46:25.921Z,1.10
2022-10-16T09:48:55.115Z,0.70
2022-10-16T09:51:27.474Z,0.67
2022-10-16T09:54:02.100Z,0.50
2022-10-16T09:56:33.028Z,0.60
2022-10-16T09:59:02.183Z,0.63
2022-10-16T10:01:37.947Z,1.27
2022-10-16T10:04:04.467Z,0.70
2022-10-16T10:06:34.027Z,0.60
2022-10-16T10:09:06.702Z,0.60
2022-10-16T10:11:45.421Z,0.50
2022-10-16T10:14:18.396Z,0.60
2022-10-16T10:16:44.570Z,0.67
2022-10-16T10:19:18.714Z,0.50
2022-10-16T10:21:45.471Z,0.60
2022-10-16T10:24:13.642Z,0.60
2022-10-16T10:26:46.583Z,0.53
2022-10-16T10:29:42.579Z,0.60
2022-10-16T10:32:18.986Z,0.60
2022-10-16T10:35:14.530Z,0.87
2022-10-16T10:38:09.752Z,0.57
2022-10-16T10:40:57.761Z,0.67
2022-10-16T10:43:59.334Z,0.60
2022-10-16T10:46:55.910Z,0.60
2022-10-16T10:49:46.662Z,0.70
2022-10-16T10:52:56.482Z,0.60
2022-10-16T10:55:43.682Z,0.70
2022-10-16T10:58:36.146Z,0.57
2022-10-16T11:01:12.029Z,0.50
2022-10-16T11:03:59.925Z,0.40
2022-10-16T11:06:32.396Z,0.80
2022-10-16T11:09:10.556Z,0.60
2022-10-16T11:12:02.829Z,0.50
2022-10-16T11:14:34.984Z,0.50
2022-10-16T11:17:14.436Z,0.60
2022-10-16T11:19:53.798Z,0.47
2022-10-16T11:22:55.365Z,0.50
2022-10-16T11:25:24.149Z,0.50
2022-10-16T11:28:04.267Z,0.60
2022-10-16T11:30:33.369Z,0.90
2022-10-16T11:33:08.524Z,0.87
2022-10-16T11:35:58.434Z,0.70
2022-10-16T11:38:38.114Z,0.40
2022-10-16T11:41:13.686Z,0.60
2022-10-16T11:43:43.932Z,0.50
2022-10-16T11:46:13.607Z,0.47
2022-10-16T11:48:50.109Z,0.40
2022-10-16T11:51:58.375Z,0.50
2022-10-16T11:54:39.241Z,0.40
2022-10-16T11:57:18.341Z,0.70
2022-10-16T11:59:53.207Z,0.50
2022-10-16T12:02:40.927Z,0.40
2022-10-16T12:05:16.004Z,0.40
2022-10-16T12:08:01.619Z,0.50
2022-10-16T12:10:31.932Z,0.50
2022-10-16T12:12:58.210Z,0.60
2022-10-16T12:15:47.094Z,0.60
2022-10-16T12:18:23.744Z,0.40
2022-10-16T12:20:59.281Z,0.50
2022-10-16T12:23:25.840Z,0.40
2022-10-16T12:26:02.622Z,0.40
2022-10-16T12:28:33.257Z,0.50
2022-10-16T12:31:02.212Z,0.60
2022-10-16T12:33:36.187Z,0.50
2022-10-16T12:36:14.118Z,0.70
2022-10-16T12:38:53.112Z,0.40
2022-10-16T12:41:30.725Z,0.40
2022-10-16T12:43:57.745Z,0.80
2022-10-16T12:46:33.393Z,0.40
2022-10-16T12:49:28.657Z,0.40
2022-10-16T12:51:55.039Z,0.50
2022-10-16T12:54:28.793Z,0.40
2022-10-16T12:57:28.201Z,0.47
2022-10-16T13:00:19.228Z,0.50
2022-10-16T13:03:24.143Z,0.50
2022-10-16T13:05:54.466Z,0.50
2022-10-16T13:08:27.388Z,0.50
2022-10-16T13:11:24.837Z,0.60
2022-10-16T13:14:20.279Z,0.40
2022-10-16T13:17:12.583Z,0.50
2022-10-16T13:19:47.391Z,0.40
2022-10-16T13:22:34.317Z,0.57
2022-10-16T13:25:14.320Z,0.50
2022-10-16T13:27:52.946Z,4.53
2022-10-16T13:30:30.962Z,0.43
2022-10-16T13:33:00.209Z,0.40
2022-10-16T13:35:32.616Z,0.50
2022-10-16T13:38:17.978Z,0.63
2022-10-16T13:41:12.522Z,0.60
2022-10-16T13:43:41.406Z,0.60
2022-10-16T13:46:15.990Z,0.43
2022-10-16T13:48:42.497Z,0.50
2022-10-16T13:51:16.949Z,0.70
2022-10-16T13:53:43.941Z,0.50
2022-10-16T13:56:15.393Z,0.50
2022-10-16T13:58:41.670Z,0.53
2022-10-16T14:01:25.260Z,0.50
2022-10-16T14:03:53.581Z,0.60
2022-10-16T14:06:23.960Z,0.60
2022-10-16T14:08:55.263Z,0.63
2022-10-16T14:11:24.113Z,0.90
2022-10-16T14:13:50.872Z,0.50
2022-10-16T14:16:19.282Z,0.80
2022-10-16T14:18:55.647Z,0.50
2022-10-16T14:21:21.848Z,0.40
2022-10-16T14:23:48.543Z,0.40
2022-10-16T14:26:18.050Z,0.40
2022-10-16T14:28:45.516Z,0.40
2022-10-16T14:31:20.562Z,0.67
2022-10-16T14:33:46.560Z,0.40
2022-10-16T14:36:14.384Z,0.60
2022-10-16T14:38:43.261Z,0.43
2022-10-16T14:41:09.830Z,0.40
2022-10-16T14:43:35.796Z,0.40
2022-10-16T14:46:03.822Z,0.70
2022-10-16T14:48:30.156Z,0.50
2022-10-16T14:50:56.342Z,0.47
2022-10-16T14:53:22.438Z,0.50
2022-10-16T14:55:48.852Z,0.60
2022-10-16T14:58:20.591Z,0.60
2022-10-16T15:00:47.147Z,0.63
2022-10-16T15:03:13.620Z,0.50
2022-10-16T15:05:39.664Z,0.67
2022-10-16T15:08:05.897Z,1.00
2022-10-16T15:10:33.925Z,0.80
2022-10-16T15:13:00.087Z,1.07
2022-10-16T15:15:33.173Z,0.70
2022-10-16T15:18:01.118Z,0.83
2022-10-16T15:20:28.942Z,0.67
2022-10-16T15:22:54.998Z,0.90
2022-10-16T15:25:33.072Z,0.90
2022-10-16T15:28:00.219Z,0.80
2022-10-16T15:30:27.109Z,1.00
2022-10-16T15:32:53.159Z,0.97
2022-10-16T15:35:19.519Z,1.10
2022-10-16T15:37:47.398Z,1.27
2022-10-16T15:40:13.623Z,0.70
2022-10-16T15:42:39.658Z,1.00
2022-10-16T15:45:06.800Z,1.10
2022-10-16T15:47:32.925Z,0.70
2022-10-16T15:49:58.924Z,0.70
2022-10-16T15:52:25.506Z,0.67
2022-10-16T15:54:54.303Z,0.80
2022-10-16T15:57:20.477Z,1.10
2022-10-16T15:59:46.612Z,1.00
2022-10-16T16:02:12.743Z,0.80
2022-10-16T16:04:43.793Z,0.90
2022-10-16T16:07:10.883Z,1.10
2022-10-16T16:09:36.941Z,1.80
2022-10-16T16:12:03.045Z,1.27
2022-10-16T16:14:29.109Z,1.50
2022-10-16T16:16:55.711Z,1.07
2022-10-16T16:19:21.806Z,1.50
2022-10-16T16:21:48.385Z,1.87
2022-10-16T16:24:14.471Z,1.40
2022-10-16T16:26:43.648Z,1.40
2022-10-16T16:29:13.433Z,1.40
2022-10-16T16:31:40.365Z,1.50
2022-10-16T16:34:06.543Z,1.50
2022-10-16T16:36:33.349Z,1.80
2022-10-16T16:38:59.506Z,1.53
2022-10-16T16:41:27.999Z,4.47
2022-10-16T16:43:54.757Z,2.57
2022-10-16T16:46:21.508Z,3.17
2022-10-16T16:48:50.188Z,1.73
2022-10-16T16:51:18.485Z,1.90
2022-10-16T16:53:46.418Z,2.97
2022-10-16T16:56:12.928Z,3.70
2022-10-16T16:58:39.153Z,3.50
2022-10-16T17:01:21.600Z,2.60
2022-10-16T17:03:49.991Z,3.37
2022-10-16T17:06:17.737Z,3.57
2022-10-16T17:08:44.764Z,3.30
2022-10-16T17:11:16.891Z,4.80
2022-10-16T17:13:43.110Z,4.00
2022-10-16T17:16:09.718Z,4.20
2022-10-16T17:18:35.807Z,4.40
2022-10-16T17:21:04.633Z,3.80
2022-10-16T17:23:30.928Z,3.77
2022-10-16T17:25:57.022Z,3.93
2022-10-16T17:28:23.199Z,4.10
2022-10-16T17:30:49.260Z,3.77
2022-10-16T17:33:15.288Z,3.83
2022-10-16T17:35:44.078Z,5.27
2022-10-16T17:38:11.481Z,4.30
2022-10-16T17:40:37.872Z,4.80
2022-10-16T17:43:04.221Z,4.27
2022-10-16T17:45:30.984Z,4.20
2022-10-16T17:48:00.458Z,4.53
2022-10-16T17:50:26.647Z,4.63
2022-10-16T17:52:52.730Z,4.07
2022-10-16T17:55:21.553Z,4.90
2022-10-16T17:57:52.710Z,5.80
2022-10-16T18:00:18.917Z,6.67
2022-10-16T18:02:45.045Z,8.87
2022-10-16T18:05:11.145Z,8.23
2022-10-16T18:07:37.232Z,9.47
2022-10-16T18:10:12.256Z,8.97
2022-10-16T18:12:38.798Z,8.77
2022-10-16T18:15:05.502Z,7.53
2022-10-16T18:17:36.938Z,6.50
2022-10-16T18:20:05.008Z,6.20
2022-10-16T18:22:37.985Z,5.97
2022-10-16T18:25:05.394Z,5.63
2022-10-16T18:27:32.710Z,5.80
2022-10-16T18:29:59.363Z,6.90
2022-10-16T18:32:26.721Z,7.10
2022-10-16T18:34:53.727Z,6.60
2022-10-16T18:37:20.131Z,7.83
2022-10-16T18:39:49.246Z,7.80
2022-10-16T18:42:16.298Z,7.80
2022-10-16T18:44:42.503Z,7.30
2022-10-16T18:47:08.600Z,7.07
2022-10-16T18:49:34.684Z,7.13
2022-10-16T18:52:02.505Z,6.77
2022-10-16T18:54:29.248Z,7.23
2022-10-16T18:56:55.382Z,9.80
2022-10-16T18:59:21.504Z,7.70
2022-10-16T19:01:48.729Z,6.17
2022-10-16T19:04:16.542Z,6.00
2022-10-16T19:06:44.935Z,6.10
2022-10-16T19:09:11.931Z,5.20
2022-10-16T19:11:41.550Z,5.80
2022-10-16T19:14:09.440Z,4.67
2022-10-16T19:16:36.563Z,5.03
2022-10-16T19:19:05.763Z,4.30
2022-10-16T19:21:34.958Z,4.83
2022-10-16T19:24:02.347Z,4.43
2022-10-16T19:26:29.832Z,4.47
2022-10-16T19:28:58.027Z,4.80
2022-10-16T19:31:25.651Z,4.00
2022-10-16T19:33:53.120Z,4.40
2022-10-16T19:36:24.177Z,3.80
2022-10-16T19:39:01.620Z,4.40
2022-10-16T19:41:28.907Z,3.70
2022-10-16T19:43:55.599Z,3.50
2022-10-16T19:46:24.179Z,3.07
2022-10-16T19:48:57.960Z,3.23
2022-10-16T19:51:25.168Z,3.20
2022-10-16T19:54:03.412Z,3.13
2022-10-16T19:56:31.297Z,3.03
2022-10-16T19:58:58.728Z,2.87
2022-10-16T20:01:26.839Z,2.90
2022-10-16T20:03:53.216Z,3.30
2022-10-16T20:06:20.194Z,2.77
2022-10-16T20:08:47.943Z,3.10
2022-10-16T20:11:19.583Z,3.10
2022-10-16T20:13:45.687Z,2.97
2022-10-16T20:16:13.931Z,3.10
2022-10-16T20:18:40.392Z,3.30
2022-10-16T20:21:10.824Z,3.00
2022-10-16T20:23:36.941Z,2.80
2022-10-16T20:26:04.177Z,3.10
2022-10-16T20:28:30.722Z,3.13
2022-10-16T20:30:56.953Z,3.10
2022-10-16T20:33:23.153Z,3.40
2022-10-16T20:35:50.154Z,2.80
2022-10-16T20:38:17.478Z,3.17
2022-10-16T20:40:46.162Z,2.80
2022-10-16T20:43:14.704Z,2.90
2022-10-16T20:45:41.184Z,2.90
2022-10-16T20:48:07.984Z,2.63
2022-10-16T20:50:34.259Z,3.10
2022-10-16T20:53:00.452Z,3.07
2022-10-16T20:55:26.852Z,2.93
2022-10-16T20:57:53.501Z,3.37
2022-10-16T21:00:19.704Z,3.80
2022-10-16T21:02:49.642Z,2.80
2022-10-16T21:05:15.963Z,3.70
2022-10-16T21:07:41.970Z,3.00
2022-10-16T21:10:08.451Z,3.60
2022-10-16T21:12:34.483Z,3.10
2022-10-16T21:15:14.450Z,3.30
2022-10-16T21:17:41.364Z,3.20
2022-10-16T21:20:07.910Z,3.83
2022-10-16T21:22:33.931Z,3.23
2022-10-16T21:24:59.950Z,2.80
2022-10-16T21:27:25.943Z,2.93
2022-10-16T21:29:53.452Z,3.30
2022-10-16T21:32:20.358Z,2.93
2022-10-16T21:34:47.347Z,2.87
2022-10-16T21:37:13.429Z,2.90
2022-10-16T21:39:39.499Z,2.27
2022-10-16T21:42:05.543Z,2.73
2022-10-16T21:44:45.032Z,3.00
2022-10-16T21:47:11.068Z,2.60
2022-10-16T21:49:37.177Z,2.50
2022-10-16T21:52:03.253Z,2.43
2022-10-16T21:54:29.318Z,2.47
2022-10-16T21:56:56.202Z,2.40
2022-10-16T21:59:22.292Z,2.57
2022-10-16T22:01:48.443Z,2.20
2022-10-16T22:04:15.988Z,2.20
2022-10-16T22:06:42.224Z,2.10
2022-10-16T22:09:11.876Z,2.10
2022-10-16T22:11:37.925Z,2.10
2022-10-16T22:14:06.388Z,2.20
2022-10-16T22:16:33.658Z,2.17
2022-10-16T22:19:02.634Z,2.60
2022-10-16T22:21:29.894Z,2.00
2022-10-16T22:23:55.959Z,2.30
2022-10-16T22:26:22.053Z,2.20
2022-10-16T22:28:48.140Z,2.10
2022-10-16T22:31:14.939Z,1.80
2022-10-16T22:33:41.870Z,2.13
2022-10-16T22:36:11.200Z,2.23
2022-10-16T22:38:37.290Z,2.40
2022-10-16T22:41:09.088Z,2.23
2022-10-16T22:43:40.531Z,2.10
2022-10-16T22:46:08.339Z,1.77
2022-10-16T22:48:35.484Z,2.37
2022-10-16T22:51:02.084Z,2.40
2022-10-16T22:53:28.247Z,2.10
2022-10-16T22:55:54.242Z,2.10
2022-10-16T22:58:21.183Z,2.30
2022-10-16T23:00:47.651Z,1.90
2022-10-16T23:03:13.753Z,2.10
2022-10-16T23:05:40.885Z,2.17
2022-10-16T23:08:07.418Z,2.30
2022-10-16T23:10:34.418Z,1.90
2022-10-16T23:13:00.502Z,2.10
2022-10-16T23:15:27.261Z,2.03
2022-10-16T23:17:53.258Z,2.50
2022-10-16T23:20:19.252Z,2.20
2022-10-16T23:22:45.290Z,2.23
2022-10-16T23:25:11.429Z,3.10
2022-10-16T23:27:37.425Z,2.30
2022-10-16T23:30:05.953Z,2.70
2022-10-16T23:32:32.929Z,2.23
2022-10-16T23:34:58.977Z,2.27
2022-10-16T23:37:25.123Z,2.57
2022-10-16T23:39:51.184Z,2.80
2022-10-16T23:42:17.476Z,2.40
2022-10-16T23:44:43.475Z,2.10
2022-10-16T23:47:09.554Z,2.33
2022-10-16T23:49:35.718Z,2.63
2022-10-16T23:52:01.713Z,2.23
2022-10-16T23:54:27.739Z,1.73
2022-10-16T23:56:53.746Z,2.00
2022-10-16T23:59:19.899Z,2.40
